sensor_id;sensor_type;location;lat;lon;timestamp;P1;durP1;ratioP1;P2;durP2;ratioP2
72856;SDS011;62742;52.136;4.500;2023-06-24T00:01:01;5.32;;;3.33;;
72856;SDS011;62742;52.136;4.500;2023-06-24T00:03:27;7.88;;;3.72;;
72856;SDS011;62742;52.136;4.500;2023-06-24T00:05:53;7.00;;;3.85;;
72856;SDS011;62742;52.136;4.500;2023-06-24T00:08:22;7.40;;;4.00;;
72856;SDS011;62742;52.136;4.500;2023-06-24T00:10:49;9.23;;;4.60;;
72856;SDS011;62742;52.136;4.500;2023-06-24T00:13:16;7.03;;;3.60;;
72856;SDS011;62742;52.136;4.500;2023-06-24T00:15:43;8.60;;;4.38;;
72856;SDS011;62742;52.136;4.500;2023-06-24T00:18:10;7.03;;;4.40;;
72856;SDS011;62742;52.136;4.500;2023-06-24T00:20:36;7.50;;;3.92;;
72856;SDS011;62742;52.136;4.500;2023-06-24T00:23:04;7.05;;;3.63;;
72856;SDS011;62742;52.136;4.500;2023-06-24T00:25:32;6.80;;;3.47;;
72856;SDS011;62742;52.136;4.500;2023-06-24T00:27:59;9.00;;;4.07;;
72856;SDS011;62742;52.136;4.500;2023-06-24T00:30:26;7.22;;;3.72;;
72856;SDS011;62742;52.136;4.500;2023-06-24T00:32:53;8.00;;;3.78;;
72856;SDS011;62742;52.136;4.500;2023-06-24T00:35:19;7.93;;;3.40;;
72856;SDS011;62742;52.136;4.500;2023-06-24T00:37:46;6.93;;;4.03;;
72856;SDS011;62742;52.136;4.500;2023-06-24T00:40:13;6.78;;;3.20;;
72856;SDS011;62742;52.136;4.500;2023-06-24T00:42:43;6.38;;;3.50;;
72856;SDS011;62742;52.136;4.500;2023-06-24T00:45:12;6.18;;;3.60;;
72856;SDS011;62742;52.136;4.500;2023-06-24T00:47:38;8.00;;;4.13;;
72856;SDS011;62742;52.136;4.500;2023-06-24T00:50:06;6.00;;;3.47;;
72856;SDS011;62742;52.136;4.500;2023-06-24T00:52:34;8.20;;;4.10;;
72856;SDS011;62742;52.136;4.500;2023-06-24T00:55:03;6.10;;;3.40;;
72856;SDS011;62742;52.136;4.500;2023-06-24T00:57:30;6.03;;;3.65;;
72856;SDS011;62742;52.136;4.500;2023-06-24T00:59:57;7.20;;;4.35;;
72856;SDS011;62742;52.136;4.500;2023-06-24T01:02:25;7.65;;;4.22;;
72856;SDS011;62742;52.136;4.500;2023-06-24T01:04:54;6.47;;;4.00;;
72856;SDS011;62742;52.136;4.500;2023-06-24T01:07:20;6.38;;;3.70;;
72856;SDS011;62742;52.136;4.500;2023-06-24T01:09:48;7.80;;;4.30;;
72856;SDS011;62742;52.136;4.500;2023-06-24T01:12:15;7.35;;;4.20;;
72856;SDS011;62742;52.136;4.500;2023-06-24T01:14:41;6.25;;;3.67;;
72856;SDS011;62742;52.136;4.500;2023-06-24T01:17:10;7.18;;;3.75;;
72856;SDS011;62742;52.136;4.500;2023-06-24T01:22:53;6.57;;;3.50;;
72856;SDS011;62742;52.136;4.500;2023-06-24T01:31:28;8.45;;;4.28;;
72856;SDS011;62742;52.136;4.500;2023-06-24T01:34:12;5.88;;;3.50;;
72856;SDS011;62742;52.136;4.500;2023-06-24T01:42:52;5.85;;;3.30;;
72856;SDS011;62742;52.136;4.500;2023-06-24T01:45:24;7.07;;;4.00;;
72856;SDS011;62742;52.136;4.500;2023-06-24T01:48:19;6.88;;;3.60;;
72856;SDS011;62742;52.136;4.500;2023-06-24T01:51:06;7.18;;;3.80;;
72856;SDS011;62742;52.136;4.500;2023-06-24T01:53:38;6.63;;;3.50;;
72856;SDS011;62742;52.136;4.500;2023-06-24T01:56:10;7.13;;;4.13;;
72856;SDS011;62742;52.136;4.500;2023-06-24T01:58:41;8.13;;;4.05;;
72856;SDS011;62742;52.136;4.500;2023-06-24T02:01:12;9.20;;;4.22;;
72856;SDS011;62742;52.136;4.500;2023-06-24T02:03:41;8.02;;;3.70;;
72856;SDS011;62742;52.136;4.500;2023-06-24T02:06:09;8.57;;;3.88;;
72856;SDS011;62742;52.136;4.500;2023-06-24T02:08:39;6.65;;;3.50;;
72856;SDS011;62742;52.136;4.500;2023-06-24T02:11:08;9.18;;;4.10;;
72856;SDS011;62742;52.136;4.500;2023-06-24T02:13:38;6.20;;;3.78;;
72856;SDS011;62742;52.136;4.500;2023-06-24T02:16:06;9.25;;;4.18;;
72856;SDS011;62742;52.136;4.500;2023-06-24T02:18:37;7.55;;;4.15;;
72856;SDS011;62742;52.136;4.500;2023-06-24T02:21:09;5.90;;;3.75;;
72856;SDS011;62742;52.136;4.500;2023-06-24T02:23:37;7.85;;;4.35;;
72856;SDS011;62742;52.136;4.500;2023-06-24T02:26:05;7.22;;;3.55;;
72856;SDS011;62742;52.136;4.500;2023-06-24T02:28:33;8.07;;;4.57;;
72856;SDS011;62742;52.136;4.500;2023-06-24T02:31:01;7.90;;;4.50;;
72856;SDS011;62742;52.136;4.500;2023-06-24T02:33:29;10.05;;;4.80;;
72856;SDS011;62742;52.136;4.500;2023-06-24T02:35:56;6.45;;;3.80;;
72856;SDS011;62742;52.136;4.500;2023-06-24T02:38:22;7.10;;;3.40;;
72856;SDS011;62742;52.136;4.500;2023-06-24T02:40:49;8.73;;;4.35;;
72856;SDS011;62742;52.136;4.500;2023-06-24T02:43:18;9.15;;;4.80;;
72856;SDS011;62742;52.136;4.500;2023-06-24T02:45:45;9.77;;;4.80;;
72856;SDS011;62742;52.136;4.500;2023-06-24T02:48:14;10.02;;;4.85;;
72856;SDS011;62742;52.136;4.500;2023-06-24T02:50:43;8.18;;;4.38;;
72856;SDS011;62742;52.136;4.500;2023-06-24T02:53:12;7.68;;;3.67;;
72856;SDS011;62742;52.136;4.500;2023-06-24T02:55:40;7.68;;;4.03;;
72856;SDS011;62742;52.136;4.500;2023-06-24T02:58:08;8.40;;;4.47;;
72856;SDS011;62742;52.136;4.500;2023-06-24T03:00:36;6.85;;;4.25;;
72856;SDS011;62742;52.136;4.500;2023-06-24T03:03:04;7.13;;;3.92;;
72856;SDS011;62742;52.136;4.500;2023-06-24T03:05:32;8.80;;;4.55;;
72856;SDS011;62742;52.136;4.500;2023-06-24T03:08:01;8.10;;;4.55;;
72856;SDS011;62742;52.136;4.500;2023-06-24T03:10:29;6.95;;;3.95;;
72856;SDS011;62742;52.136;4.500;2023-06-24T03:12:56;7.85;;;4.10;;
72856;SDS011;62742;52.136;4.500;2023-06-24T03:15:22;7.55;;;4.28;;
72856;SDS011;62742;52.136;4.500;2023-06-24T03:17:49;7.22;;;4.05;;
72856;SDS011;62742;52.136;4.500;2023-06-24T03:20:17;8.63;;;4.65;;
72856;SDS011;62742;52.136;4.500;2023-06-24T03:22:43;7.72;;;4.43;;
72856;SDS011;62742;52.136;4.500;2023-06-24T03:25:09;7.55;;;3.78;;
72856;SDS011;62742;52.136;4.500;2023-06-24T03:27:36;7.43;;;3.97;;
72856;SDS011;62742;52.136;4.500;2023-06-24T03:30:02;7.88;;;4.47;;
72856;SDS011;62742;52.136;4.500;2023-06-24T03:32:29;7.25;;;3.35;;
72856;SDS011;62742;52.136;4.500;2023-06-24T03:34:56;7.45;;;3.85;;
72856;SDS011;62742;52.136;4.500;2023-06-24T03:37:22;7.32;;;4.15;;
72856;SDS011;62742;52.136;4.500;2023-06-24T03:39:49;10.35;;;4.97;;
72856;SDS011;62742;52.136;4.500;2023-06-24T03:42:15;8.00;;;4.55;;
72856;SDS011;62742;52.136;4.500;2023-06-24T03:44:41;8.50;;;4.57;;
72856;SDS011;62742;52.136;4.500;2023-06-24T03:47:08;9.48;;;5.22;;
72856;SDS011;62742;52.136;4.500;2023-06-24T03:49:37;9.15;;;4.55;;
72856;SDS011;62742;52.136;4.500;2023-06-24T03:52:04;13.40;;;4.95;;
72856;SDS011;62742;52.136;4.500;2023-06-24T03:54:34;9.77;;;5.05;;
72856;SDS011;62742;52.136;4.500;2023-06-24T03:57:01;9.15;;;4.78;;
72856;SDS011;62742;52.136;4.500;2023-06-24T03:59:27;10.70;;;4.72;;
72856;SDS011;62742;52.136;4.500;2023-06-24T04:01:54;11.45;;;5.63;;
72856;SDS011;62742;52.136;4.500;2023-06-24T04:04:20;7.68;;;4.43;;
72856;SDS011;62742;52.136;4.500;2023-06-24T04:06:48;13.88;;;6.82;;
72856;SDS011;62742;52.136;4.500;2023-06-24T04:09:14;10.13;;;4.78;;
72856;SDS011;62742;52.136;4.500;2023-06-24T04:11:41;10.32;;;5.18;;
72856;SDS011;62742;52.136;4.500;2023-06-24T04:14:07;8.63;;;4.97;;
72856;SDS011;62742;52.136;4.500;2023-06-24T04:16:35;12.07;;;5.57;;
72856;SDS011;62742;52.136;4.500;2023-06-24T04:19:02;8.50;;;4.95;;
72856;SDS011;62742;52.136;4.500;2023-06-24T04:21:29;10.00;;;4.70;;
72856;SDS011;62742;52.136;4.500;2023-06-24T04:23:55;9.98;;;5.32;;
72856;SDS011;62742;52.136;4.500;2023-06-24T04:26:21;12.27;;;5.95;;
72856;SDS011;62742;52.136;4.500;2023-06-24T04:28:48;11.13;;;5.28;;
72856;SDS011;62742;52.136;4.500;2023-06-24T04:31:15;10.57;;;6.15;;
72856;SDS011;62742;52.136;4.500;2023-06-24T04:33:42;13.07;;;6.72;;
72856;SDS011;62742;52.136;4.500;2023-06-24T04:36:09;9.88;;;5.80;;
72856;SDS011;62742;52.136;4.500;2023-06-24T04:38:35;11.90;;;6.50;;
72856;SDS011;62742;52.136;4.500;2023-06-24T04:41:02;10.43;;;7.00;;
72856;SDS011;62742;52.136;4.500;2023-06-24T04:43:29;10.35;;;5.82;;
72856;SDS011;62742;52.136;4.500;2023-06-24T04:45:55;14.20;;;7.35;;
72856;SDS011;62742;52.136;4.500;2023-06-24T04:48:23;12.70;;;6.30;;
72856;SDS011;62742;52.136;4.500;2023-06-24T04:50:50;10.98;;;6.57;;
72856;SDS011;62742;52.136;4.500;2023-06-24T04:53:18;13.25;;;7.72;;
72856;SDS011;62742;52.136;4.500;2023-06-24T04:55:44;14.73;;;6.97;;
72856;SDS011;62742;52.136;4.500;2023-06-24T04:58:10;14.32;;;7.50;;
72856;SDS011;62742;52.136;4.500;2023-06-24T05:00:37;12.65;;;7.32;;
72856;SDS011;62742;52.136;4.500;2023-06-24T05:03:03;14.00;;;7.55;;
72856;SDS011;62742;52.136;4.500;2023-06-24T05:05:30;13.23;;;7.40;;
72856;SDS011;62742;52.136;4.500;2023-06-24T05:07:57;11.68;;;6.78;;
72856;SDS011;62742;52.136;4.500;2023-06-24T05:10:23;13.80;;;7.35;;
72856;SDS011;62742;52.136;4.500;2023-06-24T05:12:49;13.20;;;7.45;;
72856;SDS011;62742;52.136;4.500;2023-06-24T05:15:16;12.23;;;6.57;;
72856;SDS011;62742;52.136;4.500;2023-06-24T05:17:43;15.32;;;6.65;;
72856;SDS011;62742;52.136;4.500;2023-06-24T05:20:09;11.73;;;6.90;;
72856;SDS011;62742;52.136;4.500;2023-06-24T05:22:36;13.10;;;6.60;;
72856;SDS011;62742;52.136;4.500;2023-06-24T05:25:03;10.52;;;5.93;;
72856;SDS011;62742;52.136;4.500;2023-06-24T05:27:30;12.02;;;6.10;;
72856;SDS011;62742;52.136;4.500;2023-06-24T05:29:56;10.10;;;5.57;;
72856;SDS011;62742;52.136;4.500;2023-06-24T05:32:23;10.80;;;5.78;;
72856;SDS011;62742;52.136;4.500;2023-06-24T05:34:50;10.73;;;5.55;;
72856;SDS011;62742;52.136;4.500;2023-06-24T05:37:16;9.00;;;5.40;;
72856;SDS011;62742;52.136;4.500;2023-06-24T05:39:43;10.32;;;5.20;;
72856;SDS011;62742;52.136;4.500;2023-06-24T05:42:09;9.55;;;5.53;;
72856;SDS011;62742;52.136;4.500;2023-06-24T05:44:36;8.07;;;5.28;;
72856;SDS011;62742;52.136;4.500;2023-06-24T05:47:02;10.40;;;5.50;;
72856;SDS011;62742;52.136;4.500;2023-06-24T05:49:29;9.18;;;5.68;;
72856;SDS011;62742;52.136;4.500;2023-06-24T05:51:56;11.45;;;5.53;;
72856;SDS011;62742;52.136;4.500;2023-06-24T05:54:23;11.30;;;5.72;;
72856;SDS011;62742;52.136;4.500;2023-06-24T05:56:49;10.82;;;5.65;;
72856;SDS011;62742;52.136;4.500;2023-06-24T05:59:16;8.15;;;5.10;;
72856;SDS011;62742;52.136;4.500;2023-06-24T06:01:42;9.68;;;5.78;;
72856;SDS011;62742;52.136;4.500;2023-06-24T06:04:09;9.57;;;6.05;;
72856;SDS011;62742;52.136;4.500;2023-06-24T06:06:35;9.38;;;5.63;;
72856;SDS011;62742;52.136;4.500;2023-06-24T06:09:02;8.80;;;5.53;;
72856;SDS011;62742;52.136;4.500;2023-06-24T06:11:30;9.52;;;5.43;;
72856;SDS011;62742;52.136;4.500;2023-06-24T06:13:57;10.65;;;5.68;;
72856;SDS011;62742;52.136;4.500;2023-06-24T06:16:23;8.95;;;5.50;;
72856;SDS011;62742;52.136;4.500;2023-06-24T06:18:51;9.18;;;5.80;;
72856;SDS011;62742;52.136;4.500;2023-06-24T06:21:17;8.43;;;5.50;;
72856;SDS011;62742;52.136;4.500;2023-06-24T06:23:44;8.85;;;5.20;;
72856;SDS011;62742;52.136;4.500;2023-06-24T06:26:10;10.73;;;5.38;;
72856;SDS011;62742;52.136;4.500;2023-06-24T06:28:37;10.70;;;6.07;;
72856;SDS011;62742;52.136;4.500;2023-06-24T06:31:03;9.23;;;5.57;;
72856;SDS011;62742;52.136;4.500;2023-06-24T06:33:29;10.00;;;6.07;;
72856;SDS011;62742;52.136;4.500;2023-06-24T06:35:56;8.50;;;5.47;;
72856;SDS011;62742;52.136;4.500;2023-06-24T06:38:22;10.88;;;6.57;;
72856;SDS011;62742;52.136;4.500;2023-06-24T06:40:49;8.20;;;5.53;;
72856;SDS011;62742;52.136;4.500;2023-06-24T06:43:16;9.52;;;5.65;;
72856;SDS011;62742;52.136;4.500;2023-06-24T06:45:42;9.93;;;5.00;;
72856;SDS011;62742;52.136;4.500;2023-06-24T06:48:10;9.70;;;5.40;;
72856;SDS011;62742;52.136;4.500;2023-06-24T06:50:36;7.93;;;5.10;;
72856;SDS011;62742;52.136;4.500;2023-06-24T06:53:03;10.32;;;5.70;;
72856;SDS011;62742;52.136;4.500;2023-06-24T06:55:29;9.30;;;5.53;;
72856;SDS011;62742;52.136;4.500;2023-06-24T06:57:56;7.80;;;4.78;;
72856;SDS011;62742;52.136;4.500;2023-06-24T07:00:22;7.97;;;5.57;;
72856;SDS011;62742;52.136;4.500;2023-06-24T07:02:49;9.88;;;5.78;;
72856;SDS011;62742;52.136;4.500;2023-06-24T07:05:16;10.75;;;6.00;;
72856;SDS011;62742;52.136;4.500;2023-06-24T07:07:42;10.65;;;6.13;;
72856;SDS011;62742;52.136;4.500;2023-06-24T07:10:11;9.48;;;5.20;;
72856;SDS011;62742;52.136;4.500;2023-06-24T07:12:38;9.77;;;5.30;;
72856;SDS011;62742;52.136;4.500;2023-06-24T07:15:06;9.68;;;5.70;;
72856;SDS011;62742;52.136;4.500;2023-06-24T07:17:33;11.23;;;5.50;;
72856;SDS011;62742;52.136;4.500;2023-06-24T07:19:59;9.90;;;5.22;;
72856;SDS011;62742;52.136;4.500;2023-06-24T07:22:26;7.72;;;5.25;;
72856;SDS011;62742;52.136;4.500;2023-06-24T07:24:53;10.32;;;5.78;;
72856;SDS011;62742;52.136;4.500;2023-06-24T07:27:19;10.57;;;6.10;;
72856;SDS011;62742;52.136;4.500;2023-06-24T07:29:46;12.20;;;5.32;;
72856;SDS011;62742;52.136;4.500;2023-06-24T07:32:12;9.45;;;5.55;;
72856;SDS011;62742;52.136;4.500;2023-06-24T07:34:39;11.52;;;6.53;;
72856;SDS011;62742;52.136;4.500;2023-06-24T07:37:05;10.00;;;6.38;;
72856;SDS011;62742;52.136;4.500;2023-06-24T07:39:31;10.00;;;5.93;;
72856;SDS011;62742;52.136;4.500;2023-06-24T07:41:58;9.63;;;6.15;;
72856;SDS011;62742;52.136;4.500;2023-06-24T07:44:25;13.23;;;6.20;;
72856;SDS011;62742;52.136;4.500;2023-06-24T07:46:51;16.13;;;5.78;;
72856;SDS011;62742;52.136;4.500;2023-06-24T07:49:18;8.73;;;5.13;;
72856;SDS011;62742;52.136;4.500;2023-06-24T07:51:45;10.98;;;5.82;;
72856;SDS011;62742;52.136;4.500;2023-06-24T07:54:11;10.27;;;5.18;;
72856;SDS011;62742;52.136;4.500;2023-06-24T07:56:39;12.43;;;5.82;;
72856;SDS011;62742;52.136;4.500;2023-06-24T07:59:06;9.93;;;6.05;;
72856;SDS011;62742;52.136;4.500;2023-06-24T08:01:32;12.50;;;5.78;;
72856;SDS011;62742;52.136;4.500;2023-06-24T08:03:59;10.02;;;6.00;;
72856;SDS011;62742;52.136;4.500;2023-06-24T08:06:25;12.88;;;6.07;;
72856;SDS011;62742;52.136;4.500;2023-06-24T08:08:53;9.15;;;5.60;;
72856;SDS011;62742;52.136;4.500;2023-06-24T08:11:19;11.77;;;6.72;;
72856;SDS011;62742;52.136;4.500;2023-06-24T08:13:47;10.30;;;6.22;;
72856;SDS011;62742;52.136;4.500;2023-06-24T08:16:16;12.23;;;6.40;;
72856;SDS011;62742;52.136;4.500;2023-06-24T08:18:46;9.82;;;6.85;;
72856;SDS011;62742;52.136;4.500;2023-06-24T08:21:12;11.30;;;6.88;;
72856;SDS011;62742;52.136;4.500;2023-06-24T08:23:40;12.00;;;6.88;;
72856;SDS011;62742;52.136;4.500;2023-06-24T08:26:07;9.60;;;6.60;;
72856;SDS011;62742;52.136;4.500;2023-06-24T08:28:35;12.30;;;6.05;;
72856;SDS011;62742;52.136;4.500;2023-06-24T08:31:02;9.90;;;5.70;;
72856;SDS011;62742;52.136;4.500;2023-06-24T08:33:29;12.60;;;6.38;;
72856;SDS011;62742;52.136;4.500;2023-06-24T08:35:55;10.32;;;6.10;;
72856;SDS011;62742;52.136;4.500;2023-06-24T08:38:22;11.35;;;6.50;;
72856;SDS011;62742;52.136;4.500;2023-06-24T08:40:49;11.50;;;6.78;;
72856;SDS011;62742;52.136;4.500;2023-06-24T08:43:16;11.98;;;7.05;;
72856;SDS011;62742;52.136;4.500;2023-06-24T08:45:42;12.48;;;7.75;;
72856;SDS011;62742;52.136;4.500;2023-06-24T08:48:09;12.27;;;6.07;;
72856;SDS011;62742;52.136;4.500;2023-06-24T08:50:43;12.00;;;5.68;;
72856;SDS011;62742;52.136;4.500;2023-06-24T08:53:16;10.27;;;6.20;;
72856;SDS011;62742;52.136;4.500;2023-06-24T08:55:46;9.77;;;6.13;;
72856;SDS011;62742;52.136;4.500;2023-06-24T08:58:19;9.98;;;6.20;;
72856;SDS011;62742;52.136;4.500;2023-06-24T09:00:46;10.95;;;6.50;;
72856;SDS011;62742;52.136;4.500;2023-06-24T09:03:13;10.75;;;5.80;;
72856;SDS011;62742;52.136;4.500;2023-06-24T09:05:39;13.98;;;7.22;;
72856;SDS011;62742;52.136;4.500;2023-06-24T09:08:06;10.55;;;5.13;;
72856;SDS011;62742;52.136;4.500;2023-06-24T09:10:33;14.18;;;6.72;;
72856;SDS011;62742;52.136;4.500;2023-06-24T09:13:04;11.10;;;6.22;;
72856;SDS011;62742;52.136;4.500;2023-06-24T09:18:00;12.07;;;5.80;;
72856;SDS011;62742;52.136;4.500;2023-06-24T09:20:29;11.88;;;6.90;;
72856;SDS011;62742;52.136;4.500;2023-06-24T09:22:58;12.15;;;6.95;;
72856;SDS011;62742;52.136;4.500;2023-06-24T09:25:30;9.15;;;5.57;;
72856;SDS011;62742;52.136;4.500;2023-06-24T09:28:00;8.45;;;5.00;;
72856;SDS011;62742;52.136;4.500;2023-06-24T09:30:27;12.40;;;6.55;;
72856;SDS011;62742;52.136;4.500;2023-06-24T09:32:55;13.95;;;5.32;;
72856;SDS011;62742;52.136;4.500;2023-06-24T09:35:23;10.55;;;5.35;;
72856;SDS011;62742;52.136;4.500;2023-06-24T09:37:54;10.43;;;5.15;;
72856;SDS011;62742;52.136;4.500;2023-06-24T09:40:25;8.43;;;5.20;;
72856;SDS011;62742;52.136;4.500;2023-06-24T09:42:52;9.50;;;5.00;;
72856;SDS011;62742;52.136;4.500;2023-06-24T09:45:25;12.00;;;7.88;;
72856;SDS011;62742;52.136;4.500;2023-06-24T09:47:54;8.55;;;5.55;;
72856;SDS011;62742;52.136;4.500;2023-06-24T09:50:23;10.60;;;5.97;;
72856;SDS011;62742;52.136;4.500;2023-06-24T09:52:50;9.43;;;5.00;;
72856;SDS011;62742;52.136;4.500;2023-06-24T09:55:22;9.25;;;5.63;;
72856;SDS011;62742;52.136;4.500;2023-06-24T09:57:50;11.38;;;5.57;;
72856;SDS011;62742;52.136;4.500;2023-06-24T10:00:21;10.70;;;5.78;;
72856;SDS011;62742;52.136;4.500;2023-06-24T10:02:48;11.30;;;5.75;;
72856;SDS011;62742;52.136;4.500;2023-06-24T10:05:15;10.98;;;5.20;;
72856;SDS011;62742;52.136;4.500;2023-06-24T10:07:42;9.30;;;5.22;;
72856;SDS011;62742;52.136;4.500;2023-06-24T10:10:11;8.70;;;5.10;;
72856;SDS011;62742;52.136;4.500;2023-06-24T10:12:38;8.30;;;4.72;;
72856;SDS011;62742;52.136;4.500;2023-06-24T10:15:04;9.45;;;5.07;;
72856;SDS011;62742;52.136;4.500;2023-06-24T10:17:32;11.73;;;5.95;;
72856;SDS011;62742;52.136;4.500;2023-06-24T10:19:59;9.52;;;5.60;;
72856;SDS011;62742;52.136;4.500;2023-06-24T10:22:32;10.27;;;5.15;;
72856;SDS011;62742;52.136;4.500;2023-06-24T10:25:02;9.20;;;5.32;;
72856;SDS011;62742;52.136;4.500;2023-06-24T10:27:39;7.72;;;5.43;;
72856;SDS011;62742;52.136;4.500;2023-06-24T10:30:08;13.27;;;5.22;;
72856;SDS011;62742;52.136;4.500;2023-06-24T10:32:44;8.93;;;5.65;;
72856;SDS011;62742;52.136;4.500;2023-06-24T10:35:21;8.40;;;4.70;;
72856;SDS011;62742;52.136;4.500;2023-06-24T10:37:58;8.23;;;4.47;;
72856;SDS011;62742;52.136;4.500;2023-06-24T10:40:36;10.17;;;5.33;;
72856;SDS011;62742;52.136;4.500;2023-06-24T10:45:49;10.30;;;5.35;;
72856;SDS011;62742;52.136;4.500;2023-06-24T10:48:18;8.45;;;4.75;;
72856;SDS011;62742;52.136;4.500;2023-06-24T10:50:49;10.07;;;5.60;;
72856;SDS011;62742;52.136;4.500;2023-06-24T10:53:15;10.77;;;5.38;;
72856;SDS011;62742;52.136;4.500;2023-06-24T10:55:44;9.32;;;5.00;;
72856;SDS011;62742;52.136;4.500;2023-06-24T10:58:13;8.85;;;5.38;;
72856;SDS011;62742;52.136;4.500;2023-06-24T11:00:41;10.60;;;5.78;;
72856;SDS011;62742;52.136;4.500;2023-06-24T11:03:13;10.40;;;4.55;;
72856;SDS011;62742;52.136;4.500;2023-06-24T11:05:48;9.80;;;4.70;;
72856;SDS011;62742;52.136;4.500;2023-06-24T11:08:15;9.20;;;4.82;;
72856;SDS011;62742;52.136;4.500;2023-06-24T11:10:42;7.88;;;4.28;;
72856;SDS011;62742;52.136;4.500;2023-06-24T11:13:11;7.68;;;4.68;;
72856;SDS011;62742;52.136;4.500;2023-06-24T11:15:39;10.18;;;4.90;;
72856;SDS011;62742;52.136;4.500;2023-06-24T11:18:09;7.90;;;4.63;;
72856;SDS011;62742;52.136;4.500;2023-06-24T11:20:39;8.27;;;4.72;;
72856;SDS011;62742;52.136;4.500;2023-06-24T11:23:06;8.68;;;4.28;;
72856;SDS011;62742;52.136;4.500;2023-06-24T11:25:41;7.55;;;4.63;;
72856;SDS011;62742;52.136;4.500;2023-06-24T11:28:17;11.02;;;5.38;;
72856;SDS011;62742;52.136;4.500;2023-06-24T11:30:44;10.52;;;4.60;;
72856;SDS011;62742;52.136;4.500;2023-06-24T11:33:11;10.57;;;4.28;;
72856;SDS011;62742;52.136;4.500;2023-06-24T11:35:37;9.02;;;4.60;;
72856;SDS011;62742;52.136;4.500;2023-06-24T11:38:04;11.75;;;4.60;;
72856;SDS011;62742;52.136;4.500;2023-06-24T11:40:31;9.32;;;4.40;;
72856;SDS011;62742;52.136;4.500;2023-06-24T11:43:01;11.43;;;4.82;;
72856;SDS011;62742;52.136;4.500;2023-06-24T11:45:28;9.68;;;4.88;;
72856;SDS011;62742;52.136;4.500;2023-06-24T11:48:01;11.27;;;5.18;;
72856;SDS011;62742;52.136;4.500;2023-06-24T11:50:33;8.05;;;4.40;;
72856;SDS011;62742;52.136;4.500;2023-06-24T11:53:08;10.43;;;5.55;;
72856;SDS011;62742;52.136;4.500;2023-06-24T11:55:35;10.13;;;4.90;;
72856;SDS011;62742;52.136;4.500;2023-06-24T11:58:02;11.50;;;4.38;;
72856;SDS011;62742;52.136;4.500;2023-06-24T12:00:38;9.68;;;4.63;;
72856;SDS011;62742;52.136;4.500;2023-06-24T12:03:10;9.50;;;4.72;;
72856;SDS011;62742;52.136;4.500;2023-06-24T12:05:38;8.43;;;4.72;;
72856;SDS011;62742;52.136;4.500;2023-06-24T12:08:11;8.02;;;5.32;;
72856;SDS011;62742;52.136;4.500;2023-06-24T12:10:42;11.70;;;5.60;;
72856;SDS011;62742;52.136;4.500;2023-06-24T12:13:10;7.68;;;5.18;;
72856;SDS011;62742;52.136;4.500;2023-06-24T12:15:37;22.83;;;6.70;;
72856;SDS011;62742;52.136;4.500;2023-06-24T12:18:04;11.00;;;6.25;;
72856;SDS011;62742;52.136;4.500;2023-06-24T12:20:31;12.43;;;6.20;;
72856;SDS011;62742;52.136;4.500;2023-06-24T12:22:58;8.88;;;5.68;;
72856;SDS011;62742;52.136;4.500;2023-06-24T12:25:25;15.30;;;5.85;;
72856;SDS011;62742;52.136;4.500;2023-06-24T12:27:51;11.80;;;6.70;;
72856;SDS011;62742;52.136;4.500;2023-06-24T12:30:18;7.88;;;5.35;;
72856;SDS011;62742;52.136;4.500;2023-06-24T12:32:46;10.35;;;5.78;;
72856;SDS011;62742;52.136;4.500;2023-06-24T12:35:12;11.02;;;6.80;;
72856;SDS011;62742;52.136;4.500;2023-06-24T12:37:39;10.40;;;5.95;;
72856;SDS011;62742;52.136;4.500;2023-06-24T12:40:05;9.52;;;5.45;;
72856;SDS011;62742;52.136;4.500;2023-06-24T12:42:33;9.00;;;5.13;;
72856;SDS011;62742;52.136;4.500;2023-06-24T12:44:59;9.27;;;5.55;;
72856;SDS011;62742;52.136;4.500;2023-06-24T12:47:26;11.18;;;6.38;;
72856;SDS011;62742;52.136;4.500;2023-06-24T12:49:52;9.82;;;6.00;;
72856;SDS011;62742;52.136;4.500;2023-06-24T12:52:19;11.00;;;6.25;;
72856;SDS011;62742;52.136;4.500;2023-06-24T12:54:45;9.55;;;6.57;;
72856;SDS011;62742;52.136;4.500;2023-06-24T12:57:12;9.63;;;5.85;;
72856;SDS011;62742;52.136;4.500;2023-06-24T12:59:40;10.55;;;6.03;;
72856;SDS011;62742;52.136;4.500;2023-06-24T13:02:07;10.18;;;5.95;;
72856;SDS011;62742;52.136;4.500;2023-06-24T13:04:33;11.40;;;6.60;;
72856;SDS011;62742;52.136;4.500;2023-06-24T13:07:00;10.25;;;6.10;;
72856;SDS011;62742;52.136;4.500;2023-06-24T13:09:27;11.05;;;6.38;;
72856;SDS011;62742;52.136;4.500;2023-06-24T13:11:53;11.60;;;6.65;;
72856;SDS011;62742;52.136;4.500;2023-06-24T13:14:20;8.65;;;5.95;;
72856;SDS011;62742;52.136;4.500;2023-06-24T13:16:46;12.30;;;5.63;;
72856;SDS011;62742;52.136;4.500;2023-06-24T13:19:12;10.38;;;6.40;;
72856;SDS011;62742;52.136;4.500;2023-06-24T13:21:39;9.57;;;6.30;;
72856;SDS011;62742;52.136;4.500;2023-06-24T13:24:06;10.40;;;6.82;;
72856;SDS011;62742;52.136;4.500;2023-06-24T13:26:34;10.38;;;6.35;;
72856;SDS011;62742;52.136;4.500;2023-06-24T13:29:00;10.90;;;6.65;;
72856;SDS011;62742;52.136;4.500;2023-06-24T13:31:28;11.57;;;6.38;;
72856;SDS011;62742;52.136;4.500;2023-06-24T13:33:55;11.10;;;6.97;;
72856;SDS011;62742;52.136;4.500;2023-06-24T13:36:27;9.75;;;6.63;;
72856;SDS011;62742;52.136;4.500;2023-06-24T13:39:03;9.30;;;6.18;;
72856;SDS011;62742;52.136;4.500;2023-06-24T13:41:34;10.57;;;7.22;;
72856;SDS011;62742;52.136;4.500;2023-06-24T13:44:01;12.45;;;7.28;;
72856;SDS011;62742;52.136;4.500;2023-06-24T13:46:30;9.55;;;6.20;;
72856;SDS011;62742;52.136;4.500;2023-06-24T13:48:58;8.93;;;5.65;;
72856;SDS011;62742;52.136;4.500;2023-06-24T13:51:26;12.80;;;7.07;;
72856;SDS011;62742;52.136;4.500;2023-06-24T13:53:54;16.92;;;7.00;;
72856;SDS011;62742;52.136;4.500;2023-06-24T13:56:23;10.23;;;6.60;;
72856;SDS011;62742;52.136;4.500;2023-06-24T13:58:52;11.45;;;7.35;;
72856;SDS011;62742;52.136;4.500;2023-06-24T14:01:20;11.30;;;7.55;;
72856;SDS011;62742;52.136;4.500;2023-06-24T14:03:49;11.90;;;8.05;;
72856;SDS011;62742;52.136;4.500;2023-06-24T14:06:18;13.23;;;9.55;;
72856;SDS011;62742;52.136;4.500;2023-06-24T14:08:46;11.93;;;8.35;;
72856;SDS011;62742;52.136;4.500;2023-06-24T14:11:14;15.95;;;7.95;;
72856;SDS011;62742;52.136;4.500;2023-06-24T14:13:41;11.60;;;8.32;;
72856;SDS011;62742;52.136;4.500;2023-06-24T14:16:09;10.57;;;7.18;;
72856;SDS011;62742;52.136;4.500;2023-06-24T14:18:37;10.68;;;7.97;;
72856;SDS011;62742;52.136;4.500;2023-06-24T14:21:04;11.05;;;9.07;;
72856;SDS011;62742;52.136;4.500;2023-06-24T14:23:32;11.35;;;8.45;;
72856;SDS011;62742;52.136;4.500;2023-06-24T14:26:00;12.25;;;8.48;;
72856;SDS011;62742;52.136;4.500;2023-06-24T14:28:27;12.77;;;9.85;;
72856;SDS011;62742;52.136;4.500;2023-06-24T14:30:53;12.45;;;9.23;;
72856;SDS011;62742;52.136;4.500;2023-06-24T14:33:20;11.60;;;8.38;;
72856;SDS011;62742;52.136;4.500;2023-06-24T14:35:46;14.80;;;8.57;;
72856;SDS011;62742;52.136;4.500;2023-06-24T14:38:13;13.05;;;9.27;;
72856;SDS011;62742;52.136;4.500;2023-06-24T14:40:39;15.68;;;8.70;;
72856;SDS011;62742;52.136;4.500;2023-06-24T14:43:06;12.23;;;8.95;;
72856;SDS011;62742;52.136;4.500;2023-06-24T14:45:32;10.05;;;7.60;;
72856;SDS011;62742;52.136;4.500;2023-06-24T14:47:59;11.63;;;7.25;;
72856;SDS011;62742;52.136;4.500;2023-06-24T14:50:25;12.35;;;9.18;;
72856;SDS011;62742;52.136;4.500;2023-06-24T14:52:52;13.85;;;10.13;;
72856;SDS011;62742;52.136;4.500;2023-06-24T14:55:18;11.18;;;8.27;;
72856;SDS011;62742;52.136;4.500;2023-06-24T14:57:45;13.13;;;8.93;;
72856;SDS011;62742;52.136;4.500;2023-06-24T15:00:12;12.27;;;8.40;;
72856;SDS011;62742;52.136;4.500;2023-06-24T15:02:39;9.77;;;8.02;;
72856;SDS011;62742;52.136;4.500;2023-06-24T15:05:06;10.98;;;7.40;;